Time;durP1;ratioP1;P1;durP2;ratioP2;P2;SDS_P1;SDS_P2;PMS_P1;PMS_P2;Temp;Humidity;BMP_temperature;BMP_pressure;BME280_temperature;BME280_humidity;BME280_pressure;Samples;Min_cycle;Max_cycle;Signal;HPM_P1;HPM_P2
2023/01/12 00:00:44;;;;;;;;;;;;;;;8.03;100.00;100939.84;5044728;28;19921;-65
2023/01/12 00:03:09;;;;;;;;;;;;;;;8.13;100.00;100941.31;5045459;28;20015;-65
2023/01/12 00:05:34;;;;;;;;;;;;;;;7.98;100.00;100936.91;5047024;28;19928;-65
2023/01/12 00:08:00;;;;;;;;;;;;;;;8.10;100.00;100928.88;5045949;28;20430;-65
2023/01/12 00:10:25;;;;;;;;;;;;;;;8.07;100.00;100921.97;5041474;28;20011;-65
2023/01/12 00:12:50;;;;;;;;;;;;;;;8.04;100.00;100924.25;5044644;28;19921;-65
2023/01/12 00:15:15;;;;;;;;;;;;;;;8.20;100.00;100917.50;5041120;28;19943;-65
2023/01/12 00:17:40;;;;;;;;;;;;;;;8.15;100.00;100920.03;5044141;28;20367;-65
2023/01/12 00:20:06;;;;;;;;;;;;;;;8.22;100.00;100910.78;5040599;28;19928;-65
2023/01/12 00:22:31;;;;;;;;;;;;;;;8.09;100.00;100924.47;5036256;28;19917;-65
2023/01/12 00:24:56;;;;;;;;;;;;;;;8.10;100.00;100907.00;5045181;28;19964;-65
2023/01/12 00:27:22;;;;;;;;;;;;;;;8.15;100.00;100922.78;5044141;28;19920;-65
2023/01/12 00:29:48;;;;;;;;;;;;;;;8.11;100.00;100908.69;5040882;28;20363;-65
2023/01/12 00:32:14;;;;;;;;;;;;;;;8.18;100.00;100898.56;5044107;28;19921;-64
2023/01/12 00:34:40;;;;;;;;;;;;;;;8.22;100.00;100901.72;5043986;28;19917;-65
2023/01/12 00:37:05;;;;;;;;;;;;;;;8.12;100.00;100893.97;5044215;28;19982;-64
2023/01/12 00:39:30;;;;;;;;;;;;;;;8.13;100.00;100884.69;5043489;28;20098;-65
2023/01/12 00:47:23;;;;;;;;;;;;;;;8.24;100.00;100875.00;5046088;28;19930;-65
2023/01/12 00:49:48;;;;;;;;;;;;;;;8.20;100.00;100877.31;5040158;28;19921;-66
2023/01/12 00:52:14;;;;;;;;;;;;;;;8.20;100.00;100881.94;5044442;28;19923;-64
2023/01/12 00:54:40;;;;;;;;;;;;;;;8.33;100.00;100873.69;5028092;28;20131;-65
2023/01/12 00:57:06;;;;;;;;;;;;;;;8.24;100.00;100875.81;5044426;28;20338;-65
2023/01/12 00:59:31;;;;;;;;;;;;;;;8.19;100.00;100872.88;5042730;28;20388;-65
2023/01/12 01:01:56;;;;;;;;;;;;;;;8.21;100.00;100873.53;5046369;28;19979;-64
2023/01/12 01:04:22;;;;;;;;;;;;;;;8.28;100.00;100865.31;5044120;28;19935;-65
2023/01/12 01:06:47;;;;;;;;;;;;;;;8.24;100.00;100864.88;5044157;28;20000;-66
2023/01/12 01:09:12;;;;;;;;;;;;;;;8.18;100.00;100854.81;5044878;28;19921;-65
2023/01/12 01:11:38;;;;;;;;;;;;;;;8.23;100.00;100849.53;5042411;28;20019;-65
2023/01/12 01:14:04;;;;;;;;;;;;;;;8.21;100.00;100846.19;5046628;28;19924;-65
2023/01/12 01:16:29;;;;;;;;;;;;;;;8.23;100.00;100846.78;5030122;28;19921;-65
2023/01/12 01:18:55;;;;;;;;;;;;;;;8.17;100.00;100842.19;5042624;28;19925;-65
2023/01/12 01:21:21;;;;;;;;;;;;;;;8.12;100.00;100842.00;5031964;28;20285;-65
2023/01/12 01:23:46;;;;;;;;;;;;;;;8.12;100.00;100842.00;5042150;28;20034;-65
2023/01/12 01:26:13;;;;;;;;;;;;;;;8.18;100.00;100834.81;5046253;28;20494;-65
2023/01/12 01:28:39;;;;;;;;;;;;;;;8.26;100.00;100829.09;5046952;28;20006;-65
2023/01/12 01:31:11;;;;;;;;;;;;;;;8.38;100.00;100829.31;5049853;28;19975;-65
2023/01/12 01:33:37;;;;;;;;;;;;;;;8.35;100.00;100821.47;5049439;28;20011;-65
2023/01/12 01:36:02;;;;;;;;;;;;;;;8.29;100.00;100834.97;5049116;28;20026;-65
2023/01/12 01:38:27;;;;;;;;;;;;;;;8.35;100.00;100821.47;5049085;28;19932;-65
2023/01/12 01:40:53;;;;;;;;;;;;;;;8.41;100.00;100820.66;5048124;28;19932;-65
2023/01/12 01:43:19;;;;;;;;;;;;;;;8.24;100.00;100818.38;5049334;28;19927;-66
2023/01/12 01:45:46;;;;;;;;;;;;;;;8.20;100.00;100825.31;5044576;28;20367;-65
2023/01/12 01:48:13;;;;;;;;;;;;;;;8.27;100.00;100815.22;5048860;28;19960;-65
2023/01/12 01:50:41;;;;;;;;;;;;;;;8.24;100.00;100815.63;5044667;28;19936;-65
2023/01/12 01:53:10;;;;;;;;;;;;;;;8.32;100.00;100825.50;5044276;28;20509;-65
2023/01/12 01:55:37;;;;;;;;;;;;;;;8.23;100.00;100813.97;5040974;28;20364;-64
2023/01/12 01:58:09;;;;;;;;;;;;;;;8.30;100.00;100805.72;5049450;28;19921;-64
2023/01/12 02:00:35;;;;;;;;;;;;;;;8.30;100.00;100803.81;5049874;28;19920;-65
2023/01/12 02:03:01;;;;;;;;;;;;;;;8.23;100.00;100789.34;5047715;28;19917;-65
2023/01/12 02:05:27;;;;;;;;;;;;;;;8.22;100.00;100795.03;5047703;28;19937;-65
2023/01/12 02:07:53;;;;;;;;;;;;;;;8.14;100.00;100804.31;5047569;28;19921;-65
2023/01/12 02:10:19;;;;;;;;;;;;;;;8.19;100.00;100787.25;5045894;28;19928;-65
2023/01/12 02:18:28;;;;;;;;;;;;;;;8.12;100.00;100789.19;5048780;28;19928;-65
2023/01/12 02:21:22;;;;;;;;;;;;;;;8.03;100.00;100783.94;5049147;28;19920;-65
2023/01/12 02:23:58;;;;;;;;;;;;;;;8.15;100.00;100770.41;5025714;28;19921;-65
2023/01/12 02:26:35;;;;;;;;;;;;;;;8.41;100.00;100758.53;5048649;28;19975;-64
2023/01/12 02:29:19;;;;;;;;;;;;;;;8.26;100.00;100767.03;5049479;28;19917;-65
2023/01/12 02:32:07;;;;;;;;;;;;;;;8.29;100.00;100793.94;5048636;28;19990;-65
2023/01/12 02:34:35;;;;;;;;;;;;;;;8.18;100.00;100753.56;5047980;28;19967;-65
2023/01/12 02:37:06;;;;;;;;;;;;;;;8.21;100.00;100755.91;5048500;28;20325;-65
2023/01/12 02:39:43;;;;;;;;;;;;;;;8.25;100.00;100750.81;5049555;28;19916;-65
2023/01/12 02:45:05;;;;;;;;;;;;;;;8.28;100.00;100734.81;5049091;28;19978;-65
2023/01/12 02:47:45;;;;;;;;;;;;;;;8.32;100.00;100729.75;5048321;28;19924;-65
2023/01/12 02:50:13;;;;;;;;;;;;;;;8.18;100.00;100726.22;5048197;28;20397;-65
2023/01/12 02:52:42;;;;;;;;;;;;;;;8.27;100.00;100722.19;5042148;28;20031;-64
2023/01/12 02:55:08;;;;;;;;;;;;;;;8.32;100.00;100725.09;5045559;28;19957;-65
2023/01/12 02:57:33;;;;;;;;;;;;;;;8.15;100.00;100712.13;5044597;28;20582;-65
2023/01/12 03:00:00;;;;;;;;;;;;;;;8.34;100.00;100708.44;5039504;28;19978;-65
2023/01/12 03:02:26;;;;;;;;;;;;;;;8.25;100.00;100707.03;5046365;28;19962;-65
2023/01/12 03:04:52;;;;;;;;;;;;;;;8.22;100.00;100707.47;5047098;28;19921;-65
2023/01/12 03:07:27;;;;;;;;;;;;;;;8.36;100.00;100705.50;5047331;28;20288;-65
2023/01/12 03:09:56;;;;;;;;;;;;;;;8.27;100.00;100700.28;5047024;28;19973;-65
2023/01/12 03:12:29;;;;;;;;;;;;;;;8.26;100.00;100693.16;5047954;28;19917;-65
2023/01/12 03:14:57;;;;;;;;;;;;;;;8.29;100.00;100680.91;5043654;28;19925;-65
2023/01/12 03:17:27;;;;;;;;;;;;;;;8.24;100.00;100669.78;5047043;28;19917;-65
2023/01/12 03:19:56;;;;;;;;;;;;;;;8.22;100.00;100660.97;5045681;28;19998;-65
2023/01/12 03:22:21;;;;;;;;;;;;;;;8.40;100.00;100660.25;5045606;28;20019;-64
2023/01/12 03:24:54;;;;;;;;;;;;;;;8.35;100.00;100646.34;5045580;28;20004;-65
2023/01/12 03:27:39;;;;;;;;;;;;;;;8.52;100.00;100653.00;5034169;28;20351;-65
2023/01/12 03:30:06;;;;;;;;;;;;;;;8.23;100.00;100640.75;5046563;28;19921;-65
2023/01/12 03:32:31;;;;;;;;;;;;;;;8.27;100.00;100640.09;5047027;28;20015;-65
2023/01/12 03:34:57;;;;;;;;;;;;;;;8.39;100.00;100647.63;5045958;28;20066;-66
2023/01/12 03:37:35;;;;;;;;;;;;;;;8.24;100.00;100636.97;5047014;28;19928;-66
2023/01/12 03:40:09;;;;;;;;;;;;;;;8.17;100.00;100644.38;5045929;28;19921;-65
2023/01/12 03:42:37;;;;;;;;;;;;;;;8.17;100.00;100633.44;5047434;28;19924;-65
2023/01/12 03:45:09;;;;;;;;;;;;;;;8.27;100.00;100620.94;5046138;28;20371;-65
2023/01/12 03:47:35;;;;;;;;;;;;;;;8.20;100.00;100620.13;5046901;28;20275;-65
2023/01/12 03:50:10;;;;;;;;;;;;;;;8.37;100.00;100609.53;5045924;28;19921;-65
2023/01/12 03:52:38;;;;;;;;;;;;;;;8.32;100.00;100612.91;5042062;28;19927;-66
2023/01/12 03:55:04;;;;;;;;;;;;;;;8.27;100.00;100598.22;5030771;28;19917;-65
2023/01/12 03:57:30;;;;;;;;;;;;;;;8.67;100.00;100587.81;5035649;28;19928;-65
2023/01/12 03:59:57;;;;;;;;;;;;;;;8.37;100.00;100573.97;5046548;28;19921;-65
2023/01/12 04:02:22;;;;;;;;;;;;;;;8.25;100.00;100573.81;5046251;28;19921;-66
2023/01/12 04:04:47;;;;;;;;;;;;;;;8.21;100.00;100563.53;5045997;28;20252;-65
2023/01/12 04:07:12;;;;;;;;;;;;;;;8.31;100.00;100562.00;4984038;28;1739929;-65
2023/01/12 04:09:38;;;;;;;;;;;;;;;8.23;100.00;100551.31;5047415;28;19932;-65
2023/01/12 04:12:09;;;;;;;;;;;;;;;8.37;100.00;100543.03;5047781;28;19928;-65
2023/01/12 04:14:34;;;;;;;;;;;;;;;8.29;100.00;100530.44;5043348;28;19924;-65
2023/01/12 04:16:59;;;;;;;;;;;;;;;8.30;100.00;100521.16;5046290;28;19921;-65
2023/01/12 04:19:24;;;;;;;;;;;;;;;8.34;100.00;100508.69;5034839;28;19921;-66
2023/01/12 04:24:33;;;;;;;;;;;;;;;8.21;100.00;100506.06;5047426;28;19928;-66
2023/01/12 04:26:58;;;;;;;;;;;;;;;8.32;100.00;100495.25;5046768;28;19916;-65
2023/01/12 04:29:23;;;;;;;;;;;;;;;8.25;100.00;100494.47;5046839;28;20482;-65
2023/01/12 04:31:49;;;;;;;;;;;;;;;8.35;100.00;100483.00;5047493;28;19917;-65
2023/01/12 04:34:14;;;;;;;;;;;;;;;8.38;100.00;100479.88;5045595;28;19917;-65
2023/01/12 04:36:40;;;;;;;;;;;;;;;8.38;100.00;100459.88;5046796;28;19924;-66
2023/01/12 04:39:05;;;;;;;;;;;;;;;8.19;100.00;100445.28;5044503;28;19924;-65
2023/01/12 04:41:30;;;;;;;;;;;;;;;8.21;100.00;100433.06;5047003;28;19921;-65
2023/01/12 04:43:56;;;;;;;;;;;;;;;8.17;100.00;100409.97;5045169;28;20324;-66
2023/01/12 04:46:21;;;;;;;;;;;;;;;8.18;100.00;100417.09;5047316;28;19920;-65
2023/01/12 04:48:46;;;;;;;;;;;;;;;8.17;100.00;100420.91;5032384;28;19920;-65
2023/01/12 04:51:11;;;;;;;;;;;;;;;8.27;100.00;100421.22;5044541;28;19921;-66
2023/01/12 04:53:36;;;;;;;;;;;;;;;8.21;100.00;100424.88;5046699;28;19928;-66
2023/01/12 04:56:05;;;;;;;;;;;;;;;8.26;100.00;100438.69;5046472;28;19916;-64
2023/01/12 04:58:30;;;;;;;;;;;;;;;8.37;100.00;100428.94;5045937;28;19925;-65
2023/01/12 05:00:55;;;;;;;;;;;;;;;8.15;100.00;100433.94;5046305;28;20320;-66
2023/01/12 05:03:21;;;;;;;;;;;;;;;8.25;100.00;100423.31;5045768;28;19921;-66
2023/01/12 05:05:46;;;;;;;;;;;;;;;8.35;100.00;100430.19;5050058;28;19924;-66
2023/01/12 05:10:57;;;;;;;;;;;;;;;8.28;100.00;100433.84;5046107;28;19943;-65
2023/01/12 05:13:23;;;;;;;;;;;;;;;8.13;100.00;100407.91;5050798;28;19948;-65
2023/01/12 05:15:48;;;;;;;;;;;;;;;8.26;100.00;100400.41;5051046;28;19959;-65
2023/01/12 05:18:13;;;;;;;;;;;;;;;8.03;100.00;100427.56;5048461;28;19928;-65
2023/01/12 05:20:38;;;;;;;;;;;;;;;8.20;100.00;100401.28;5050406;28;19920;-65
2023/01/12 05:23:03;;;;;;;;;;;;;;;8.37;100.00;100404.31;5049938;28;20301;-65
2023/01/12 05:25:30;;;;;;;;;;;;;;;8.39;100.00;100417.75;5050356;28;19921;-65
2023/01/12 05:27:56;;;;;;;;;;;;;;;8.27;100.00;100418.47;5048470;28;20326;-65
2023/01/12 05:30:21;;;;;;;;;;;;;;;8.25;100.00;100406.91;5040234;28;19940;-66
2023/01/12 05:32:47;;;;;;;;;;;;;;;8.16;100.00;100418.38;5030457;28;20284;-65
2023/01/12 05:35:12;;;;;;;;;;;;;;;8.17;100.00;100401.75;5030399;28;19956;-65
2023/01/12 05:37:37;;;;;;;;;;;;;;;8.24;100.00;100393.47;5030430;28;19967;-65
2023/01/12 05:40:02;;;;;;;;;;;;;;;8.23;100.00;100381.69;5036904;28;19925;-65
2023/01/12 05:45:11;;;;;;;;;;;;;;;8.40;100.00;100381.13;5047611;28;20011;-65
2023/01/12 05:47:37;;;;;;;;;;;;;;;8.46;100.00;100382.94;5049355;28;20334;-65
2023/01/12 05:50:02;;;;;;;;;;;;;;;8.34;100.00;100369.16;5048768;28;19943;-65
2023/01/12 05:52:28;;;;;;;;;;;;;;;8.26;100.00;100399.53;5049185;28;19917;-65
2023/01/12 05:54:53;;;;;;;;;;;;;;;8.25;100.00;100387.75;5050168;28;19920;-65
2023/01/12 05:57:18;;;;;;;;;;;;;;;8.29;100.00;100390.88;5045691;28;19935;-65
2023/01/12 05:59:43;;;;;;;;;;;;;;;8.34;100.00;100374.63;5040509;28;20017;-66
2023/01/12 06:02:12;;;;;;;;;;;;;;;8.29;100.00;100374.47;5046984;28;20355;-65
2023/01/12 06:04:38;;;;;;;;;;;;;;;8.32;100.00;100374.88;5042289;28;19964;-65
2023/01/12 06:07:03;;;;;;;;;;;;;;;8.23;100.00;100392.63;5032847;28;19963;-65
2023/01/12 06:09:28;;;;;;;;;;;;;;;8.20;100.00;100370.34;5029866;28;19945;-65
2023/01/12 06:14:37;;;;;;;;;;;;;;;8.32;100.00;100374.03;5043355;28;19968;-66
2023/01/12 06:17:03;;;;;;;;;;;;;;;8.27;100.00;100369.25;5049405;28;19913;-65
2023/01/12 06:19:28;;;;;;;;;;;;;;;8.33;100.00;100371.06;5047820;28;20361;-66
2023/01/12 06:21:54;;;;;;;;;;;;;;;8.41;100.00;100378.13;5047942;28;19931;-66
2023/01/12 06:24:19;;;;;;;;;;;;;;;8.32;100.00;100355.72;5048174;28;19917;-65
2023/01/12 06:26:45;;;;;;;;;;;;;;;8.42;100.00;100368.91;5048399;28;19917;-66
2023/01/12 06:29:10;;;;;;;;;;;;;;;8.52;100.00;100373.84;5049394;28;20282;-66
2023/01/12 06:31:37;;;;;;;;;;;;;;;8.61;100.00;100357.91;5048630;28;19962;-65
2023/01/12 06:34:02;;;;;;;;;;;;;;;8.47;100.00;100384.63;5047662;28;20397;-66
2023/01/12 06:36:27;;;;;;;;;;;;;;;8.62;100.00;100379.59;5040553;28;19971;-66
2023/01/12 06:38:53;;;;;;;;;;;;;;;8.42;100.00;100371.63;5048412;28;19943;-66
2023/01/12 06:44:02;;;;;;;;;;;;;;;8.64;100.00;100368.41;5048455;28;20275;-66
2023/01/12 06:46:27;;;;;;;;;;;;;;;8.56;100.00;100369.56;5047560;28;19924;-65
2023/01/12 06:48:58;;;;;;;;;;;;;;;8.68;100.00;100383.31;5047469;28;19924;-66
2023/01/12 06:51:24;;;;;;;;;;;;;;;8.58;100.00;100367.44;5049323;28;19951;-66
2023/01/12 06:53:49;;;;;;;;;;;;;;;8.63;100.00;100378.53;5048264;28;20383;-65
2023/01/12 06:56:14;;;;;;;;;;;;;;;8.68;100.00;100380.59;5048679;28;19924;-66
2023/01/12 06:58:43;;;;;;;;;;;;;;;8.76;100.00;100381.09;5047203;28;19925;-66
2023/01/12 07:01:08;;;;;;;;;;;;;;;8.80;100.00;100371.34;5039706;28;19925;-66
2023/01/12 07:03:34;;;;;;;;;;;;;;;8.71;100.00;100382.84;5038929;28;19975;-66
2023/01/12 07:05:59;;;;;;;;;;;;;;;8.66;100.00;100408.16;5042510;28;19927;-65
2023/01/12 07:08:25;;;;;;;;;;;;;;;8.93;100.00;100375.00;5030386;28;20004;-67
2023/01/12 07:10:50;;;;;;;;;;;;;;;8.73;100.00;100392.53;5041496;28;19925;-67
2023/01/12 07:13:15;;;;;;;;;;;;;;;8.69;100.00;100383.09;5031414;28;20315;-65
2023/01/12 07:15:40;;;;;;;;;;;;;;;8.79;100.00;100382.53;5046328;28;19921;-67
2023/01/12 07:18:05;;;;;;;;;;;;;;;8.67;100.00;100387.97;5048233;28;19917;-67
2023/01/12 07:20:32;;;;;;;;;;;;;;;8.70;100.00;100375.72;5044774;28;20459;-67
2023/01/12 07:22:57;;;;;;;;;;;;;;;8.82;100.00;100391.16;5045216;28;20451;-66
2023/01/12 07:25:23;;;;;;;;;;;;;;;8.88;100.00;100394.03;5047819;28;19920;-67
2023/01/12 07:27:53;;;;;;;;;;;;;;;9.04;100.00;100377.78;5044854;28;20303;-65
2023/01/12 07:30:20;;;;;;;;;;;;;;;8.95;100.00;100402.97;5035472;28;19925;-66
2023/01/12 07:32:45;;;;;;;;;;;;;;;8.88;100.00;100400.34;5043166;28;19960;-65
2023/01/12 07:35:10;;;;;;;;;;;;;;;8.79;100.00;100398.97;5038833;28;19960;-66
2023/01/12 07:37:35;;;;;;;;;;;;;;;8.78;100.00;100398.13;5039596;28;19917;-67
2023/01/12 07:40:00;;;;;;;;;;;;;;;8.90;100.00;100409.16;5034295;28;20252;-65
2023/01/12 07:42:26;;;;;;;;;;;;;;;8.91;100.00;100409.97;5036216;28;19929;-66
2023/01/12 07:44:51;;;;;;;;;;;;;;;8.82;100.00;100410.31;5035712;28;20011;-65
2023/01/12 07:47:16;;;;;;;;;;;;;;;8.76;100.00;100408.47;5035971;28;20054;-65
2023/01/12 07:49:42;;;;;;;;;;;;;;;8.86;100.00;100423.53;5034214;28;19928;-67
2023/01/12 07:52:09;;;;;;;;;;;;;;;8.86;100.00;100418.03;5038531;28;20359;-66
2023/01/12 07:54:35;;;;;;;;;;;;;;;8.86;100.00;100418.03;5048061;28;20000;-65
2023/01/12 07:57:00;;;;;;;;;;;;;;;8.81;100.00;100411.34;5042994;28;20015;-66
2023/01/12 07:59:26;;;;;;;;;;;;;;;8.92;100.00;100419.84;5047710;28;19962;-66
2023/01/12 08:01:53;;;;;;;;;;;;;;;8.86;100.00;100420.78;5037000;28;19921;-66
2023/01/12 08:04:18;;;;;;;;;;;;;;;8.97;100.00;100428.22;5039638;28;19932;-67
2023/01/12 08:06:43;;;;;;;;;;;;;;;8.92;100.00;100423.47;5046426;28;19921;-67
2023/01/12 08:09:09;;;;;;;;;;;;;;;8.78;100.00;100428.25;5045274;28;20011;-67
2023/01/12 08:11:34;;;;;;;;;;;;;;;8.73;100.00;100427.28;5028103;28;19917;-67
2023/01/12 08:14:00;;;;;;;;;;;;;;;8.80;100.00;100436.25;5040482;28;20007;-66
2023/01/12 08:16:30;;;;;;;;;;;;;;;8.86;100.00;100429.84;5030188;28;20022;-67
2023/01/12 08:18:56;;;;;;;;;;;;;;;9.14;100.00;100432.00;5027588;28;19925;-66
2023/01/12 08:21:24;;;;;;;;;;;;;;;9.07;100.00;100436.72;5044260;28;19921;-67
2023/01/12 08:23:55;;;;;;;;;;;;;;;8.98;100.00;100438.13;5045554;28;20322;-67
2023/01/12 08:26:23;;;;;;;;;;;;;;;9.12;100.00;100428.66;5042180;28;19927;-66
2023/01/12 08:28:54;;;;;;;;;;;;;;;8.98;100.00;100443.63;5032369;28;20011;-66
2023/01/12 08:31:20;;;;;;;;;;;;;;;9.04;100.00;100434.47;5045442;28;19921;-65
2023/01/12 08:33:45;;;;;;;;;;;;;;;9.13;100.00;100435.00;5044134;28;19917;-66
2023/01/12 08:36:13;;;;;;;;;;;;;;;9.02;100.00;100440.19;5044073;28;20551;-67
2023/01/12 08:38:39;;;;;;;;;;;;;;;9.12;100.00;100433.28;5044380;28;19917;-67
2023/01/12 08:44:00;;;;;;;;;;;;;;;9.14;100.00;100442.97;5046480;28;19927;-67
2023/01/12 08:46:26;;;;;;;;;;;;;;;9.25;100.00;100455.06;5044923;28;19921;-67
2023/01/12 08:48:52;;;;;;;;;;;;;;;9.26;100.00;100446.59;5046046;28;20276;-66
2023/01/12 08:51:18;;;;;;;;;;;;;;;9.27;100.00;100445.50;5047030;28;19920;-67
2023/01/12 08:53:43;;;;;;;;;;;;;;;9.38;100.00;100454.88;5046099;28;19944;-65
2023/01/12 08:56:08;;;;;;;;;;;;;;;9.31;100.00;100460.44;5047202;28;19917;-67
2023/01/12 08:58:34;;;;;;;;;;;;;;;9.30;100.00;100455.19;5040919;28;19919;-67
2023/01/12 09:01:09;;;;;;;;;;;;;;;9.37;100.00;100458.66;5043937;28;19921;-67
2023/01/12 09:03:35;;;;;;;;;;;;;;;9.31;100.00;100470.56;5046126;28;19917;-66
2023/01/12 09:06:07;;;;;;;;;;;;;;;9.46;100.00;100472.88;5046097;28;19917;-67
2023/01/12 09:08:33;;;;;;;;;;;;;;;9.46;100.00;100470.97;5046980;28;20543;-67
2023/01/12 09:11:02;;;;;;;;;;;;;;;9.47;100.00;100475.38;5044389;28;19932;-65
2023/01/12 09:13:28;;;;;;;;;;;;;;;9.48;100.00;100468.00;5046621;28;19967;-67
2023/01/12 09:15:53;;;;;;;;;;;;;;;9.38;100.00;100465.84;5046065;28;20376;-67
2023/01/12 09:18:18;;;;;;;;;;;;;;;9.57;100.00;100478.41;5041760;28;19974;-67
2023/01/12 09:20:43;;;;;;;;;;;;;;;9.40;100.00;100473.81;5044615;28;19963;-67
2023/01/12 09:23:08;;;;;;;;;;;;;;;9.53;100.00;100479.97;5045983;28;19923;-66
2023/01/12 09:25:34;;;;;;;;;;;;;;;9.42;100.00;100488.13;5046940;28;20322;-66
2023/01/12 09:27:59;;;;;;;;;;;;;;;9.41;100.00;100494.69;5034402;28;19964;-66
2023/01/12 09:30:24;;;;;;;;;;;;;;;9.55;100.00;100483.28;5026330;28;20378;-66
2023/01/12 09:32:49;;;;;;;;;;;;;;;9.50;100.00;100485.06;5025293;28;19924;-66
2023/01/12 09:35:17;;;;;;;;;;;;;;;9.60;100.00;100485.34;5026608;28;20411;-66
2023/01/12 09:37:43;;;;;;;;;;;;;;;9.47;100.00;100485.53;5035687;28;19999;-67
2023/01/12 09:40:12;;;;;;;;;;;;;;;9.56;100.00;100476.75;5045334;28;19925;-67
2023/01/12 09:48:07;;;;;;;;;;;;;;;9.51;100.00;100497.69;5045533;28;19999;-67
2023/01/12 09:50:37;;;;;;;;;;;;;;;9.51;100.00;100506.75;5047460;28;20011;-66
2023/01/12 09:53:17;;;;;;;;;;;;;;;9.50;100.00;100507.00;5049078;28;19924;-67
2023/01/12 09:55:49;;;;;;;;;;;;;;;9.71;100.00;100509.22;5039921;28;19921;-65
2023/01/12 09:58:37;;;;;;;;;;;;;;;9.52;100.00;100510.31;5035647;28;19924;-64
2023/01/12 10:01:07;;;;;;;;;;;;;;;9.59;100.00;100513.84;5048440;28;20290;-65
2023/01/12 10:03:37;;;;;;;;;;;;;;;9.69;100.00;100510.53;5048874;28;20287;-67
2023/01/12 10:06:02;;;;;;;;;;;;;;;9.74;100.00;100519.72;5050117;28;19998;-65
2023/01/12 10:08:34;;;;;;;;;;;;;;;9.78;100.00;100520.94;5049532;28;19968;-66
2023/01/12 10:11:11;;;;;;;;;;;;;;;9.75;100.00;100520.56;5049499;28;19924;-66
2023/01/12 10:14:04;;;;;;;;;;;;;;;9.80;100.00;100521.53;5049784;28;20375;-66
2023/01/12 10:16:44;;;;;;;;;;;;;;;9.93;100.00;100523.22;5043818;28;19947;-66
2023/01/12 10:19:17;;;;;;;;;;;;;;;9.73;100.00;100523.56;5044928;28;19921;-66
2023/01/12 10:21:43;;;;;;;;;;;;;;;9.80;100.00;100531.66;5049302;28;19921;-67
2023/01/12 10:24:10;;;;;;;;;;;;;;;9.66;100.00;100533.75;5048985;28;19928;-67
2023/01/12 10:26:40;;;;;;;;;;;;;;;9.82;100.00;100533.09;5048084;28;20432;-66
2023/01/12 10:29:06;;;;;;;;;;;;;;;9.62;100.00;100533.38;5047732;28;19921;-66
2023/01/12 10:31:31;;;;;;;;;;;;;;;9.65;100.00;100536.75;5048502;28;19923;-66
2023/01/12 10:34:10;;;;;;;;;;;;;;;9.65;100.00;100523.88;5046414;28;20442;-65
2023/01/12 10:36:40;;;;;;;;;;;;;;;9.70;100.00;100534.13;5029579;28;19917;-67
2023/01/12 10:39:23;;;;;;;;;;;;;;;9.67;100.00;100532.69;5043961;28;19927;-66
2023/01/12 10:42:06;;;;;;;;;;;;;;;9.58;100.00;100526.72;5048789;28;20722;-66
2023/01/12 10:44:31;;;;;;;;;;;;;;;9.74;100.00;100530.69;5049114;28;20011;-66
2023/01/12 10:47:07;;;;;;;;;;;;;;;9.59;100.00;100522.06;5047956;28;20039;-67
2023/01/12 10:49:32;;;;;;;;;;;;;;;9.78;100.00;100528.31;5049272;28;19936;-66
2023/01/12 10:52:06;;;;;;;;;;;;;;;9.65;100.00;100529.34;5046988;28;19940;-66
2023/01/12 10:54:33;;;;;;;;;;;;;;;9.78;100.00;100531.06;5048124;28;20279;-67
2023/01/12 10:57:01;;;;;;;;;;;;;;;9.78;100.00;100512.72;5048865;28;19921;-66
2023/01/12 10:59:28;;;;;;;;;;;;;;;9.66;100.00;100516.47;5048249;28;19921;-65
2023/01/12 11:02:10;;;;;;;;;;;;;;;9.61;100.00;100519.91;5038940;28;19921;-67
2023/01/12 11:04:40;;;;;;;;;;;;;;;9.57;100.00;100513.22;5031463;28;19917;-66
2023/01/12 11:07:09;;;;;;;;;;;;;;;9.71;100.00;100511.13;5028456;28;19921;-67
2023/01/12 11:09:34;;;;;;;;;;;;;;;9.86;100.00;100517.84;5028936;28;19963;-68
2023/01/12 11:12:01;;;;;;;;;;;;;;;9.82;100.00;100516.63;5032210;28;19921;-67
2023/01/12 11:14:26;;;;;;;;;;;;;;;9.75;100.00;100515.09;5047376;28;20378;-66
2023/01/12 11:16:52;;;;;;;;;;;;;;;9.84;100.00;100519.16;5044186;28;20046;-66
2023/01/12 11:19:17;;;;;;;;;;;;;;;9.77;100.00;100518.41;5045394;28;19964;-66
2023/01/12 11:22:08;;;;;;;;;;;;;;;9.98;100.00;100509.63;5046407;28;19921;-67
2023/01/12 11:24:57;;;;;;;;;;;;;;;9.97;100.00;100509.88;5043316;28;19971;-67
2023/01/12 11:27:38;;;;;;;;;;;;;;;10.00;100.00;100513.00;5031905;28;19921;-67
2023/01/12 11:30:15;;;;;;;;;;;;;;;9.93;100.00;100522.38;5028222;28;19917;-66
2023/01/12 11:32:40;;;;;;;;;;;;;;;9.95;100.00;100520.28;5027086;28;19952;-64
2023/01/12 11:35:25;;;;;;;;;;;;;;;9.82;100.00;100510.31;5028728;28;20007;-66
2023/01/12 11:37:53;;;;;;;;;;;;;;;10.01;100.00;100514.66;5030317;28;19927;-66
2023/01/12 11:40:29;;;;;;;;;;;;;;;9.94;100.00;100521.34;5037435;28;19928;-66
2023/01/12 11:45:45;;;;;;;;;;;;;;;10.30;100.00;100512.13;5044200;28;20564;-67
2023/01/12 11:48:17;;;;;;;;;;;;;;;9.96;100.00;100524.69;5025253;28;20023;-67
2023/01/12 11:50:44;;;;;;;;;;;;;;;9.91;100.00;100510.81;5025461;28;19917;-66
2023/01/12 11:53:18;;;;;;;;;;;;;;;10.07;100.00;100519.22;5025595;28;19918;-65
2023/01/12 11:56:05;;;;;;;;;;;;;;;9.87;100.00;100514.03;5026137;28;20322;-67
2023/01/12 11:58:37;;;;;;;;;;;;;;;9.87;100.00;100515.94;5028477;28;19922;-67
2023/01/12 12:01:08;;;;;;;;;;;;;;;9.87;100.00;100508.53;5047846;28;19916;-67
2023/01/12 12:03:34;;;;;;;;;;;;;;;9.87;100.00;100513.19;5047758;28;19916;-65
2023/01/12 12:06:22;;;;;;;;;;;;;;;9.77;100.00;100502.78;5044477;28;20364;-66
2023/01/12 12:08:56;;;;;;;;;;;;;;;9.68;100.00;100503.34;5036206;28;19928;-66
2023/01/12 12:11:40;;;;;;;;;;;;;;;9.81;100.00;100498.50;5047491;28;20379;-65
2023/01/12 12:14:20;;;;;;;;;;;;;;;9.79;100.00;100497.94;5047928;28;19917;-67
2023/01/12 12:17:03;;;;;;;;;;;;;;;9.86;100.00;100481.34;5046701;28;20291;-66
2023/01/12 12:19:28;;;;;;;;;;;;;;;9.74;100.00;100492.31;5045400;28;19928;-67
2023/01/12 12:21:53;;;;;;;;;;;;;;;9.78;100.00;100478.94;5046931;28;19917;-66
2023/01/12 12:24:37;;;;;;;;;;;;;;;10.01;100.00;100484.50;5046751;28;19928;-67
2023/01/12 12:27:21;;;;;;;;;;;;;;;9.86;100.00;100476.72;5047238;28;19924;-67
2023/01/12 12:29:49;;;;;;;;;;;;;;;9.93;100.00;100479.34;5043828;28;19921;-66
2023/01/12 12:32:28;;;;;;;;;;;;;;;9.98;100.00;100464.91;5046641;28;20334;-66
2023/01/12 12:35:13;;;;;;;;;;;;;;;10.04;100.00;100473.06;5046291;28;19932;-66
2023/01/12 12:37:38;;;;;;;;;;;;;;;10.13;100.00;100473.53;5046699;28;19917;-64
2023/01/12 12:40:13;;;;;;;;;;;;;;;10.15;100.00;100460.41;5047824;28;19916;-65
2023/01/12 12:45:45;;;;;;;;;;;;;;;10.13;100.00;100457.88;5046904;28;20029;-66
2023/01/12 12:48:16;;;;;;;;;;;;;;;10.22;100.00;100452.06;5044679;28;19976;-65
2023/01/12 12:50:45;;;;;;;;;;;;;;;10.06;100.00;100454.44;5034439;28;20036;-66
2023/01/12 12:53:11;;;;;;;;;;;;;;;10.06;100.00;100456.34;5045863;28;19944;-66
2023/01/12 12:55:36;;;;;;;;;;;;;;;10.10;100.00;100461.13;5047553;28;19920;-66
2023/01/12 12:58:20;;;;;;;;;;;;;;;10.06;100.00;100462.66;5046276;28;19917;-66
2023/01/12 13:00:45;;;;;;;;;;;;;;;9.93;100.00;100449.16;5046824;28;19923;-65
2023/01/12 13:03:30;;;;;;;;;;;;;;;10.02;100.00;100460.63;5045955;28;20348;-66
2023/01/12 13:06:16;;;;;;;;;;;;;;;10.24;100.00;100458.16;5041589;28;20015;-66
2023/01/12 13:08:41;;;;;;;;;;;;;;;10.02;100.00;100457.88;5023891;28;20323;-65
2023/01/12 13:11:06;;;;;;;;;;;;;;;10.08;100.00;100455.03;5026856;28;19918;-66
2023/01/12 13:13:33;;;;;;;;;;;;;;;10.09;100.00;100453.13;5043434;28;19967;-68
2023/01/12 13:16:25;;;;;;;;;;;;;;;10.18;100.00;100454.44;5031454;28;20430;-64
2023/01/12 13:18:50;;;;;;;;;;;;;;;10.12;100.00;100460.88;5026290;28;20007;-66
2023/01/12 13:21:41;;;;;;;;;;;;;;;10.05;100.00;100460.16;5027348;28;20360;-66
2023/01/12 13:24:10;;;;;;;;;;;;;;;10.14;100.00;100454.09;5027826;28;20333;-66